createdAt,value
2019-02-11T00:07:59.446Z,3.6
2019-02-11T00:16:00.095Z,3.7
2019-02-11T00:19:00.167Z,3.6
2019-02-11T00:21:00.688Z,3.7
2019-02-11T00:36:01.423Z,3.9
2019-02-11T00:37:01.190Z,3.7
2019-02-11T00:38:01.682Z,3.9
2019-02-11T00:42:01.512Z,3.7
2019-02-11T00:43:01.764Z,3.9
2019-02-11T00:44:01.630Z,3.7
2019-02-11T00:47:01.833Z,3.9
2019-02-11T00:49:01.929Z,3.7
2019-02-11T00:50:02.357Z,3.9
2019-02-11T00:51:02.218Z,3.7
2019-02-11T00:53:02.259Z,3.9
2019-02-11T00:55:02.361Z,3.7
2019-02-11T01:42:05.321Z,3.6
2019-02-11T02:05:06.662Z,3.7
2019-02-11T02:37:08.627Z,3.9
2019-02-11T02:38:08.694Z,3.7
2019-02-11T02:39:08.753Z,3.9
2019-02-11T02:46:09.177Z,3.7
2019-02-11T03:00:10.040Z,3.9
2019-02-11T03:15:10.908Z,3.7
2019-02-11T03:22:11.404Z,3.6
2019-02-11T03:28:11.773Z,3.5
2019-02-11T03:37:12.311Z,3.4
2019-02-11T03:38:12.313Z,3.5
2019-02-11T03:48:12.971Z,3.6
2019-02-11T03:52:13.226Z,3.7
2019-02-11T04:40:16.167Z,3.9
2019-02-11T04:41:16.253Z,3.7
2019-02-11T04:44:16.416Z,3.9
2019-02-11T04:53:16.957Z,4
2019-02-11T04:54:16.990Z,3.9
2019-02-11T04:56:17.159Z,4
2019-02-11T05:07:17.863Z,4.1
2019-02-11T05:08:17.889Z,4
2019-02-11T05:20:18.638Z,3.9
2019-02-11T05:24:18.871Z,3.7
2019-02-11T05:32:19.369Z,3.9
2019-02-11T06:09:23.107Z,3.7
2019-02-11T06:16:22.147Z,3.9
2019-02-11T06:22:22.413Z,4
2019-02-11T06:28:22.848Z,4.1
2019-02-11T06:33:23.071Z,4.2
2019-02-11T06:34:23.181Z,4.1
2019-02-11T06:35:23.202Z,4.2
2019-02-11T06:42:23.692Z,4.4
2019-02-11T06:46:23.928Z,4.2
2019-02-11T06:47:23.969Z,4.4
2019-02-11T06:49:24.123Z,4.2
2019-02-11T06:57:24.547Z,4.4
2019-02-11T06:58:24.679Z,4.2
2019-02-11T07:12:25.561Z,4.1
2019-02-11T07:14:25.614Z,4.2
2019-02-11T07:19:25.906Z,4.4
2019-02-11T07:23:26.145Z,4.5
2019-02-11T07:26:26.417Z,4.6
2019-02-11T07:28:26.520Z,4.7
2019-02-11T07:29:26.540Z,4.9
2019-02-11T07:35:26.924Z,4.7
2019-02-11T07:37:27.047Z,4.9
2019-02-11T07:38:27.138Z,4.7
2019-02-11T07:40:27.250Z,4.9
2019-02-11T07:44:27.488Z,5
2019-02-11T07:49:27.785Z,5.1
2019-02-11T07:50:27.887Z,5.4
2019-02-11T07:51:27.911Z,5.6
2019-02-11T07:52:27.931Z,5.9
2019-02-11T07:53:28.041Z,6.2
2019-02-11T07:54:28.057Z,6.1
2019-02-11T07:55:28.669Z,6
2019-02-11T07:56:28.307Z,5.9
2019-02-11T07:58:28.375Z,5.7
2019-02-11T07:59:28.372Z,5.6
2019-02-11T08:01:28.537Z,5.5
2019-02-11T08:04:28.685Z,5.4
2019-02-11T08:12:29.230Z,5.5
2019-02-11T08:16:29.450Z,5.6
2019-02-11T08:18:29.592Z,5.7
2019-02-11T08:20:29.685Z,5.9
2019-02-11T08:22:29.809Z,6
2019-02-11T08:25:30.003Z,5.9
2019-02-11T08:28:30.213Z,6
2019-02-11T08:32:30.424Z,5.9
2019-02-11T08:34:30.566Z,5.7
2019-02-11T08:35:30.636Z,5.6
2019-02-11T08:37:30.746Z,5.7
2019-02-11T08:38:30.761Z,5.6
2019-02-11T08:45:31.240Z,5.7
2019-02-11T08:46:31.247Z,5.9
2019-02-11T08:47:31.356Z,6
2019-02-11T08:48:31.446Z,6.2
2019-02-11T08:49:31.486Z,6.4
2019-02-11T08:50:31.513Z,6.5
2019-02-11T08:52:31.636Z,6.6
2019-02-11T08:53:31.681Z,7
2019-02-11T08:54:31.754Z,7.1
2019-02-11T08:55:31.803Z,7.2
2019-02-11T08:56:31.898Z,7.1
2019-02-11T08:57:31.926Z,7
2019-02-11T09:00:32.122Z,6.9
2019-02-11T09:02:32.230Z,7.1
2019-02-11T09:03:32.295Z,7.2
2019-02-11T09:05:32.463Z,7.1
2019-02-11T09:07:32.612Z,7.2
2019-02-11T09:08:32.654Z,7.5
2019-02-11T09:09:32.709Z,8.4
2019-02-11T09:10:32.771Z,9.1
2019-02-11T09:11:32.788Z,9.9
2019-02-11T09:12:33.034Z,11.4
2019-02-11T09:13:32.951Z,12.9
2019-02-11T09:14:33.005Z,12.2
2019-02-11T09:15:33.066Z,11.5
2019-02-11T09:16:33.131Z,11
2019-02-11T09:17:33.161Z,10.9
2019-02-11T09:18:33.267Z,11
2019-02-11T09:19:33.349Z,11.1
2019-02-11T09:20:33.342Z,12
2019-02-11T09:21:33.459Z,11.9
2019-02-11T09:22:33.479Z,12.2
2019-02-11T09:23:33.839Z,12
2019-02-11T09:24:34.873Z,11.5
2019-02-11T09:25:33.659Z,11.1
2019-02-11T09:26:33.838Z,10.8
2019-02-11T09:27:34.062Z,10.5
2019-02-11T09:28:34.247Z,10.4
2019-02-11T09:29:33.963Z,10.3
2019-02-11T09:31:34.047Z,10.5
2019-02-11T09:32:34.209Z,10.4
2019-02-11T09:33:34.311Z,11.4
2019-02-11T09:34:34.257Z,12.9
2019-02-11T09:35:34.312Z,14
2019-02-11T09:36:34.368Z,14.1
2019-02-11T09:37:34.419Z,14.7
2019-02-11T09:38:34.518Z,16
2019-02-11T09:39:34.577Z,16.9
2019-02-11T09:40:34.581Z,17.6
2019-02-11T09:41:34.644Z,18.3
2019-02-11T09:42:34.710Z,18.6
2019-02-11T09:43:34.809Z,19
2019-02-11T09:44:34.824Z,19.3
2019-02-11T09:45:34.878Z,19.5
2019-02-11T09:46:34.953Z,19.9
2019-02-11T09:47:34.999Z,20.1
2019-02-11T09:49:35.168Z,20.3
2019-02-11T09:50:35.217Z,20.1
2019-02-11T09:51:35.300Z,20
2019-02-11T09:52:35.394Z,20.3
2019-02-11T09:53:35.468Z,20.6
2019-02-11T09:54:35.479Z,19.5
2019-02-11T09:55:35.536Z,17.6
2019-02-11T09:56:35.571Z,16.1
2019-02-11T09:57:35.670Z,14.9
2019-02-11T09:58:35.683Z,14
2019-02-11T09:59:35.789Z,13.3
2019-02-11T10:00:35.867Z,12.9
2019-02-11T10:01:35.905Z,13.1
2019-02-11T10:02:35.963Z,12.9
2019-02-11T10:03:36.115Z,14.3
2019-02-11T10:04:36.102Z,15.6
2019-02-11T10:05:36.143Z,15.3
2019-02-11T10:06:36.211Z,14.6
2019-02-11T10:07:36.270Z,14
2019-02-11T10:08:36.341Z,13.4
2019-02-11T10:09:36.400Z,12.9
2019-02-11T10:10:36.476Z,12.4
2019-02-11T10:11:36.512Z,12
2019-02-11T10:12:36.580Z,11.6
2019-02-11T10:13:36.665Z,11.3
2019-02-11T10:14:36.715Z,11
2019-02-11T10:15:36.771Z,10.9
2019-02-11T10:16:36.783Z,10.6
2019-02-11T10:17:36.910Z,10.8
2019-02-11T10:18:36.986Z,11.6
2019-02-11T10:19:37.011Z,11.9
2019-02-11T10:20:37.072Z,11.6
2019-02-11T10:21:37.141Z,11.5
2019-02-11T10:22:37.155Z,11.3
2019-02-11T10:23:37.277Z,11.1
2019-02-11T10:24:37.330Z,11.4
2019-02-11T10:25:37.372Z,12.4
2019-02-11T10:26:37.660Z,12.8
2019-02-11T10:27:37.533Z,13.1
2019-02-11T10:28:37.607Z,12.9
2019-02-11T10:29:37.654Z,14.5
2019-02-11T10:30:37.686Z,16.5
2019-02-11T10:31:37.708Z,18
2019-02-11T10:32:37.775Z,18.9
2019-02-11T10:33:37.863Z,19.6
2019-02-11T10:34:37.901Z,20.3
2019-02-11T10:35:42.180Z,20.8
2019-02-11T10:36:38.057Z,20
2019-02-11T10:37:38.087Z,18.1
2019-02-11T10:38:38.222Z,17.6
2019-02-11T10:39:38.241Z,18.4
2019-02-11T10:40:38.254Z,17.9
2019-02-11T10:41:38.408Z,18.6
2019-02-11T10:42:38.458Z,19.4
2019-02-11T10:43:38.557Z,19.1
2019-02-11T10:44:38.538Z,19.9
2019-02-11T10:45:38.629Z,20.5
2019-02-11T10:46:38.696Z,21
2019-02-11T10:47:38.731Z,21.4
2019-02-11T10:48:38.839Z,21.8
2019-02-11T10:49:38.821Z,22
2019-02-11T10:50:38.888Z,22.4
2019-02-11T10:51:38.998Z,22.8
2019-02-11T10:52:39.001Z,23.3
2019-02-11T10:53:39.148Z,23.7
2019-02-11T10:54:39.192Z,24.4
2019-02-11T10:55:39.223Z,24.1
2019-02-11T10:56:39.309Z,22.4
2019-02-11T10:57:39.305Z,20.6
2019-02-11T10:58:39.467Z,19.3
2019-02-11T10:59:39.454Z,18.3
2019-02-11T11:00:39.540Z,17.4
2019-02-11T11:01:39.618Z,17
2019-02-11T11:02:39.687Z,17.4
2019-02-11T11:03:39.789Z,18
2019-02-11T11:04:39.783Z,19.9
2019-02-11T11:05:39.834Z,21.1
2019-02-11T11:06:39.895Z,22.1
2019-02-11T11:07:39.980Z,21.6
2019-02-11T11:08:40.091Z,21.1
2019-02-11T11:09:40.142Z,22.2
2019-02-11T11:10:40.172Z,22.1
2019-02-11T11:11:40.199Z,21
2019-02-11T11:12:40.325Z,19.5
2019-02-11T11:13:40.322Z,18.1
2019-02-11T11:14:40.368Z,17
2019-02-11T11:15:40.414Z,16.1
2019-02-11T11:16:40.562Z,15.3
2019-02-11T11:17:40.564Z,14.6
2019-02-11T11:18:40.721Z,15.5
2019-02-11T11:19:40.664Z,14.7
2019-02-11T11:20:40.750Z,14.3
2019-02-11T11:21:40.788Z,14.4
2019-02-11T11:22:40.864Z,16.5
2019-02-11T11:23:40.956Z,18.1
2019-02-11T11:24:40.978Z,19.1
2019-02-11T11:25:41.030Z,18.3
2019-02-11T11:26:41.197Z,16.6
2019-02-11T11:27:41.155Z,15.5
2019-02-11T11:28:41.319Z,14.5
2019-02-11T11:29:41.338Z,13.8
2019-02-11T11:30:41.348Z,13
2019-02-11T11:31:41.443Z,12.6
2019-02-11T11:32:41.464Z,13.4
2019-02-11T11:33:43.105Z,15.6
2019-02-11T11:34:41.668Z,17.5
2019-02-11T11:35:41.712Z,17.9
2019-02-11T11:36:41.766Z,17.2
2019-02-11T11:37:41.820Z,16.3
2019-02-11T11:38:41.895Z,15.4
2019-02-11T11:39:41.923Z,14.6
2019-02-11T11:40:42.005Z,14
2019-02-11T11:41:42.081Z,14.5
2019-02-11T11:42:42.130Z,14.6
2019-02-11T11:43:42.271Z,14.7
2019-02-11T11:44:42.263Z,14.1
2019-02-11T11:45:42.287Z,13.6
2019-02-11T11:46:47.013Z,13.1
2019-02-11T11:47:42.447Z,12.6
2019-02-11T11:48:42.509Z,12
2019-02-11T11:49:42.551Z,11.5
2019-02-11T11:50:42.638Z,11
2019-02-11T11:51:42.691Z,10.6
2019-02-11T11:52:42.694Z,10.3
2019-02-11T11:53:42.762Z,9.9
2019-02-11T11:54:42.881Z,9.5
2019-02-11T11:55:42.922Z,9.3
2019-02-11T11:56:43.003Z,9
2019-02-11T11:57:43.060Z,8.9
2019-02-11T12:00:43.259Z,9
2019-02-11T12:01:43.269Z,9.4
2019-02-11T12:02:59.384Z,9.6
2019-02-11T12:03:43.409Z,9.9
2019-02-11T12:04:43.510Z,9.8
2019-02-11T12:05:43.533Z,9.6
2019-02-11T12:06:43.559Z,9.5
2019-02-11T12:07:43.649Z,9.4
2019-02-11T12:09:44.134Z,9.3
2019-02-11T12:10:43.874Z,9.1
2019-02-11T12:11:43.861Z,9
2019-02-11T12:12:43.926Z,8.8
2019-02-11T12:13:44.028Z,8.4
2019-02-11T12:14:44.077Z,8.1
2019-02-11T12:15:44.144Z,7.7
2019-02-11T12:16:55.879Z,7.5
2019-02-11T12:17:44.281Z,7.2
2019-02-11T12:18:44.340Z,7
2019-02-11T12:19:44.413Z,6.9
2019-02-11T12:21:44.485Z,7.2
2019-02-11T12:22:44.599Z,7.7
2019-02-11T12:24:44.720Z,7.6
2019-02-11T12:25:44.790Z,9.4
2019-02-11T12:26:44.837Z,9.1
2019-02-11T12:27:44.914Z,8.8
2019-02-11T12:28:44.948Z,8.3
2019-02-11T12:29:45.010Z,8
2019-02-11T12:30:45.083Z,7.7
2019-02-11T12:31:45.138Z,7.6
2019-02-11T12:32:45.218Z,8.3
2019-02-11T12:33:45.326Z,10.4
2019-02-11T12:34:45.364Z,11.3
2019-02-11T12:35:45.380Z,12.1
2019-02-11T12:36:45.442Z,11.5
2019-02-11T12:37:45.489Z,11.1
2019-02-11T12:38:45.531Z,10.5
2019-02-11T12:39:45.619Z,10.1
2019-02-11T12:41:45.758Z,10.8
2019-02-11T12:42:45.841Z,10.4
2019-02-11T12:43:45.888Z,10.3
2019-02-11T12:44:45.899Z,10
2019-02-11T12:45:45.993Z,10.6
2019-02-11T12:46:46.060Z,10.8
2019-02-11T12:47:46.126Z,11.3
2019-02-11T12:48:46.172Z,13.5
2019-02-11T12:49:46.268Z,15.3
2019-02-11T12:50:46.349Z,16.8
2019-02-11T12:51:46.398Z,18
2019-02-11T12:52:46.463Z,18.9
2019-02-11T12:53:46.478Z,19.1
2019-02-11T12:54:46.574Z,19.9
2019-02-11T12:55:46.577Z,20.5
2019-02-11T12:56:46.656Z,21.1
2019-02-11T12:57:46.693Z,21.6
2019-02-11T12:58:46.779Z,22.2
2019-02-11T12:59:46.829Z,22.8
2019-02-11T13:00:46.888Z,22
2019-02-11T13:01:46.962Z,21.4
2019-02-11T13:02:47.058Z,21.2
2019-02-11T13:03:47.108Z,21.8
2019-02-11T13:04:47.174Z,20.9
2019-02-11T13:05:47.285Z,20
2019-02-11T13:06:47.286Z,20.3
2019-02-11T13:07:47.346Z,20
2019-02-11T13:08:47.433Z,18.8
2019-02-11T13:09:47.502Z,17.4
2019-02-11T13:10:47.555Z,16.3
2019-02-11T13:11:47.622Z,15.3
2019-02-11T13:12:47.701Z,14.4
2019-02-11T13:13:47.750Z,13.6
2019-02-11T13:14:47.784Z,12.9
2019-02-11T13:15:59.712Z,12.2
2019-02-11T13:16:47.895Z,11.6
2019-02-11T13:17:48.012Z,11.1
2019-02-11T13:18:48.031Z,10.5
2019-02-11T13:19:48.090Z,10.1
2019-02-11T13:20:48.166Z,9.6
2019-02-11T13:21:48.223Z,9.3
2019-02-11T13:22:48.285Z,8.9
2019-02-11T13:23:48.357Z,8.4
2019-02-11T13:24:48.393Z,7.9
2019-02-11T13:25:48.519Z,7.4
2019-02-11T13:26:48.499Z,6.9
2019-02-11T13:27:48.829Z,6.4
2019-02-11T13:28:48.650Z,6
2019-02-11T13:29:48.721Z,5.5
2019-02-11T13:30:48.769Z,5
2019-02-11T13:31:48.803Z,4.6
2019-02-11T13:32:48.937Z,4.2
2019-02-11T13:33:48.932Z,3.9
2019-02-11T13:34:49.020Z,3.6
2019-02-11T13:35:49.075Z,3.5
2019-02-11T13:36:49.102Z,3.2
2019-02-11T13:38:49.230Z,3.1
2019-02-11T13:39:49.338Z,3
2019-02-11T13:40:49.416Z,2.9
2019-02-11T13:41:49.454Z,3
2019-02-11T13:43:49.572Z,3.1
2019-02-11T13:44:49.619Z,3.4
2019-02-11T13:45:49.715Z,3.5
2019-02-11T13:46:49.763Z,3.7
2019-02-11T13:47:55.649Z,4
2019-02-11T13:48:49.836Z,4.1
2019-02-11T13:49:49.903Z,4.4
2019-02-11T13:50:49.968Z,4.6
2019-02-11T13:51:50.022Z,4.7
2019-02-11T13:52:50.097Z,4.9
2019-02-11T13:53:50.138Z,5
2019-02-11T13:54:50.310Z,5.1
2019-02-11T13:55:50.317Z,5.6
2019-02-11T13:56:50.362Z,6
2019-02-11T13:57:50.422Z,6.2
2019-02-11T14:00:51.000Z,6.1
2019-02-11T14:02:50.732Z,6
2019-02-11T14:05:50.972Z,6.1
2019-02-11T14:06:50.983Z,6.4
2019-02-11T14:07:51.040Z,6.7
2019-02-11T14:08:51.125Z,6.4
2019-02-11T14:09:51.165Z,6.1
2019-02-11T14:10:51.184Z,5.9
2019-02-11T14:11:51.290Z,5.5
2019-02-11T14:12:51.376Z,5.4
2019-02-11T14:14:01.889Z,5.1
2019-02-11T14:14:51.477Z,5
2019-02-11T14:16:51.622Z,6
2019-02-11T14:18:09.262Z,7.6
2019-02-11T14:18:51.744Z,8.9
2019-02-11T14:19:51.807Z,10
2019-02-11T14:20:51.846Z,10.1
2019-02-11T14:21:51.922Z,10.3
2019-02-11T14:22:51.987Z,11.1
2019-02-11T14:23:52.040Z,11.3
2019-02-11T14:24:52.105Z,10.9
2019-02-11T14:25:52.150Z,11.5
2019-02-11T14:26:52.222Z,12.1
2019-02-11T14:27:52.232Z,12.6
2019-02-11T14:28:52.331Z,11.6
2019-02-11T14:29:52.415Z,10.6
2019-02-11T14:30:52.438Z,9.8
2019-02-11T14:31:52.494Z,9.1
2019-02-11T14:32:52.581Z,8.5
2019-02-11T14:33:52.684Z,8
2019-02-11T14:34:52.690Z,7.6
2019-02-11T14:35:52.777Z,7.2
2019-02-11T14:36:52.792Z,7
2019-02-11T14:37:52.856Z,6.9
2019-02-11T14:38:52.904Z,7.1
2019-02-11T14:39:52.969Z,7.4
2019-02-11T14:40:53.053Z,8.5
2019-02-11T14:41:53.110Z,9.5
2019-02-11T14:42:53.185Z,10.1
2019-02-11T14:43:53.241Z,10.6
2019-02-11T14:44:53.334Z,9.9
2019-02-11T14:45:53.345Z,8.9
2019-02-11T14:46:53.440Z,8.3
2019-02-11T14:47:53.528Z,7.7
2019-02-11T14:48:53.576Z,7.4
2019-02-11T14:49:53.995Z,7
2019-02-11T14:50:53.703Z,7.2
2019-02-11T14:51:53.737Z,8.1
2019-02-11T14:52:53.825Z,9.1
2019-02-11T14:53:53.912Z,9.9
2019-02-11T14:54:53.939Z,10.4
2019-02-11T14:55:53.982Z,10.8
2019-02-11T14:56:54.072Z,11
2019-02-11T14:58:54.129Z,10.6
2019-02-11T14:59:54.260Z,9.9
2019-02-11T15:00:54.327Z,9.3
2019-02-11T15:01:54.316Z,8.8
2019-02-11T15:02:54.378Z,8.4
2019-02-11T15:03:54.478Z,8
2019-02-11T15:04:54.566Z,7.6
2019-02-11T15:05:54.604Z,7.2
2019-02-11T15:06:54.692Z,7
2019-02-11T15:07:54.688Z,6.7
2019-02-11T15:08:54.809Z,6.5
2019-02-11T15:09:54.865Z,6.2
2019-02-11T15:10:54.927Z,6
2019-02-11T15:11:55.012Z,5.7
2019-02-11T15:12:55.045Z,5.6
2019-02-11T15:13:55.092Z,5.5
2019-02-11T15:14:55.161Z,5.4
2019-02-11T15:15:55.251Z,5.2
2019-02-11T15:16:55.280Z,5.1
2019-02-11T15:17:55.371Z,5
2019-02-11T15:22:55.621Z,4.9
2019-02-11T15:23:55.667Z,5
2019-02-11T15:27:55.939Z,5.1
2019-02-11T15:28:55.979Z,5.2
2019-02-11T15:31:56.189Z,5.4
2019-02-11T15:33:56.316Z,5.5
2019-02-11T15:34:56.389Z,6
2019-02-11T15:35:56.459Z,6.4
2019-02-11T15:36:56.524Z,6.6
2019-02-11T15:37:56.586Z,7
2019-02-11T15:38:56.639Z,7.1
2019-02-11T15:40:56.768Z,7
2019-02-11T15:41:56.773Z,6.7
2019-02-11T15:42:56.921Z,6.6
2019-02-11T15:47:57.191Z,6.5
2019-02-11T15:48:57.249Z,6.2
2019-02-11T15:49:57.339Z,6.1
2019-02-11T15:50:57.388Z,5.9
2019-02-11T15:51:57.449Z,5.6
2019-02-11T15:52:58.990Z,5.4
2019-02-11T15:53:57.553Z,5.2
2019-02-11T15:54:57.629Z,5
2019-02-11T15:55:57.679Z,4.9
2019-02-11T15:56:57.753Z,4.7
2019-02-11T15:57:57.806Z,4.6
2019-02-11T15:59:57.932Z,4.5
2019-02-11T16:00:57.984Z,4.4
2019-02-11T16:03:59.787Z,4.2
2019-02-11T16:06:00.005Z,4.1
2019-02-11T16:07:58.385Z,4
2019-02-11T16:09:04.257Z,4.1
2019-02-11T16:09:58.564Z,4
2019-02-11T16:21:59.285Z,3.9
2019-02-11T16:23:59.398Z,3.7
2019-02-11T16:28:59.707Z,3.6
2019-02-11T16:34:00.023Z,3.5
2019-02-11T16:44:01.195Z,3.4
2019-02-11T16:48:01.062Z,3.2
2019-02-11T16:56:01.338Z,3.1
2019-02-11T17:07:02.017Z,3
2019-02-11T17:12:02.394Z,2.9
2019-02-11T17:19:08.989Z,2.7
2019-02-11T17:27:03.310Z,2.6
2019-02-11T17:47:04.507Z,2.5
2019-02-11T17:55:04.968Z,2.4
2019-02-11T18:04:05.539Z,2.5
2019-02-11T18:20:06.527Z,2.4
2019-02-11T18:23:06.707Z,2.5
2019-02-11T18:24:06.776Z,2.4
2019-02-11T18:28:07.017Z,2.5
2019-02-11T18:29:07.092Z,2.4
2019-02-11T18:30:07.140Z,2.5
2019-02-11T18:31:07.201Z,2.4
2019-02-11T18:38:07.639Z,2.5
2019-02-11T18:39:07.655Z,2.4
2019-02-11T18:40:07.714Z,2.5
2019-02-11T18:44:08.038Z,2.6
2019-02-11T18:45:09.724Z,2.5
2019-02-11T18:46:08.083Z,2.6
2019-02-11T18:59:08.927Z,2.5
2019-02-11T19:05:09.249Z,2.6
2019-02-11T19:08:09.474Z,2.7
2019-02-11T19:10:09.598Z,2.9
2019-02-11T19:13:09.791Z,3
2019-02-11T19:17:10.026Z,3.1
2019-02-11T19:20:10.213Z,3.2
2019-02-11T19:28:10.661Z,3.4
2019-02-11T19:41:11.521Z,3.2
2019-02-11T19:43:11.647Z,3.1
2019-02-11T19:45:11.735Z,3
2019-02-11T19:46:11.797Z,3.1
2019-02-11T19:47:11.899Z,3
2019-02-11T19:52:12.143Z,2.9
2019-02-11T20:18:13.764Z,2.7
2019-02-11T20:39:29.670Z,3.1
2019-02-11T20:49:39.541Z,3.1
2019-02-11T20:57:47.472Z,3.1
2019-02-11T21:03:53.387Z,3.1
2019-02-11T21:13:02.039Z,3
2019-02-11T21:14:01.412Z,3.1
2019-02-11T21:15:01.440Z,3
2019-02-11T21:25:02.262Z,3.1
2019-02-11T21:28:02.240Z,3
2019-02-11T21:29:02.428Z,3.1
2019-02-11T21:45:03.309Z,3.2
2019-02-11T21:46:03.365Z,3.1
2019-02-11T22:14:05.050Z,3
2019-02-11T22:15:05.086Z,3.1
2019-02-11T22:17:05.210Z,3
2019-02-11T22:18:05.309Z,3.1
2019-02-11T22:22:05.573Z,3
2019-02-11T22:26:05.823Z,2.9
2019-02-11T22:29:05.993Z,2.7
2019-02-11T22:33:06.267Z,2.6
2019-02-11T22:39:06.623Z,2.5
2019-02-11T22:47:07.095Z,2.4
2019-02-11T22:55:07.570Z,2.2
2019-02-11T23:17:08.969Z,2.1
2019-02-11T23:24:09.330Z,2.2
2019-02-11T23:31:09.826Z,2.4
2019-02-11T23:39:10.282Z,2.5
2019-02-11T23:46:10.683Z,2.6
2019-02-11T23:51:10.958Z,2.7
2019-02-11T23:54:11.126Z,2.9
2019-02-11T23:55:11.207Z,2.7
2019-02-11T23:56:11.241Z,2.9
